Sun Communities Inc (SUI) Latest Bloomsberg Price


Mffais Ranking #19 Overall / #2 Industry
Industry: Reit

Number of Companies: 193 (Ranking #850 Overall/#50 Industry)
Inflow: $ 373,684 (K) (Ranking #313 Overall/#15 Industry)
Outflow: $ -92,798 (K)
Mffais Flow: $ 280,886 (K) (Ranking #19 Overall/#2 Industry)


Receive a FREE weekly executive review of stocks moving into the top 10, taking the top industy spot or moving up within their industry. Sent directly to your Inbox every Saturday. Sign up today and get last week's review immediately sent to you.

We value and respect your privacy. Please read our Terms and Conditions which states our firm commitment to your privacy. Your email address will not be shared with a third party, nor will it be sold or used for purposes other than subscription for the weekly review.

Owner CPOR Shares Action Qty Chg Invested (K) Total Current Value (K)
Cbre Clarion Securities Llc 2016-09-30 4,231,109 Added More 1,058,518 $ 82,236 $ 328,714
Zimmer Partners Lp 2016-09-30 650,000 New Holding 650,000 $ 50,498 $ 50,498
Shinko Asset Management Co Ltd 2016-09-30 983,056 Added More 608,518 $ 47,275 $ 76,373
V3 Capital Management L P 2016-09-30 238,275 New Holding 238,275 $ 18,511 $ 18,511
Perkins Investment Management Llc 2016-09-30 557,075 Added More 235,022 $ 18,258 $ 43,279
Duff Phelps Investment Management Co 2016-09-30 437,550 Added More 233,800 $ 18,163 $ 33,993
Castle Ridge Investment Management Lp 2016-09-30 224,500 New Holding 224,500 $ 17,441 $ 17,441
Nuveen Asset Management Llc 2016-09-30 980,335 Added More 202,284 $ 15,715 $ 76,162
Waratah Capital Advisors Ltd 2016-09-30 141,500 New Holding 141,500 $ 10,993 $ 10,993
Amp Capital Investors Ltd 2016-09-30 1,119,034 Added More 127,500 $ 9,905 $ 86,937
Teachers Advisors Inc 2016-09-30 618,799 Added More 117,768 $ 9,149 $ 48,074
Adelante Capital Management Llc 2016-09-30 393,638 Added More 92,732 $ 7,204 $ 30,581
Security Capital Research Management Inc 2016-09-30 534,059 Added More 81,437 $ 6,326 $ 41,491
Sei Investments Co 2016-09-30 142,077 Added More 62,742 $ 4,874 $ 11,037
Dimensional Fund Advisors Lp 2016-09-30 777,226 Added More 50,789 $ 3,945 $ 60,382
Menta Capital Llc 2016-09-30 46,800 New Holding 46,800 $ 3,635 $ 3,635
Gareth Morgan Investments Limited Partnership 2016-09-30 43,892 New Holding 43,892 $ 3,409 $ 3,409
Advantus Capital Management Inc 2016-09-30 320,096 Added More 42,600 $ 3,309 $ 24,868
Blackrock Inc 2016-09-30 117,998 Added More 41,101 $ 3,193 $ 9,167
Northern Trust Corp 2016-09-30 594,675 Added More 40,446 $ 3,142 $ 46,200
Eii Capital Management Inc 2016-09-30 60,000 Added More 38,700 $ 3,006 $ 4,661
Monashee Investment Management Llc 2016-09-30 37,073 New Holding 37,073 $ 2,880 $ 2,880
State Of New Jersey Common Pension Fund D 2016-09-30 202,000 Added More 32,000 $ 2,486 $ 15,693
Highbridge Capital Management Llc 2016-09-30 92,366 Added More 29,311 $ 2,277 $ 7,175
Dupont Capital Management Corp 2016-09-30 27,304 New Holding 27,304 $ 2,121 $ 2,121
Westpac Banking Corp 2016-09-30 88,175 Added More 24,645 $ 1,914 $ 6,850
Henderson Group Plc 2016-09-30 26,869 Added More 23,507 $ 1,826 $ 2,087
Tudor Investment Corp Et Al 2016-09-30 25,612 Added More 20,373 $ 1,582 $ 1,989
Ellington Management Group Llc 2016-09-30 18,600 New Holding 18,600 $ 1,445 $ 1,445
Legal General Group Plc 2016-09-30 136,931 Added More 15,925 $ 1,237 $ 10,638
Thrivent Financial For Lutherans 2016-09-30 39,731 Added More 15,600 $ 1,211 $ 3,086
Axa 2016-09-30 15,000 New Holding 15,000 $ 1,165 $ 1,165
Blackrock Investment Management Llc 2016-09-30 45,529 Added More 14,985 $ 1,164 $ 3,537
Swiss National Bank 2016-09-30 111,431 Added More 11,800 $ 916 $ 8,657
Emerald Acquisition Ltd 2016-09-30 516,825 Added More 10,768 $ 836 $ 40,152
American Assets Capital Advisers 2016-09-30 92,863 Added More 10,000 $ 776 $ 7,214
Quadrature Capital Ltd 2016-09-30 13,489 Added More 9,802 $ 761 $ 1,047
Kcg Holdings Inc 2016-09-30 9,253 New Holding 9,253 $ 718 $ 718
Mizuho Asset Management Co Ltd 2016-09-30 30,400 Added More 8,400 $ 652 $ 2,361
Rhumbline Advisers 2016-09-30 58,547 Added More 8,113 $ 630 $ 4,548
Harrison Street Securities Llc 2016-09-30 6,792 New Holding 6,792 $ 527 $ 527
Parametric Portfolio Associates Llc 2016-09-30 68,241 Added More 6,442 $ 500 $ 5,301
Quantitative Systematic Strategies Llc 2016-09-30 6,291 New Holding 6,291 $ 488 $ 488
Foresters Investment Management Company Inc 2016-09-30 11,238 Added More 5,750 $ 446 $ 873
Independent Order Of Foresters 2016-09-30 8,757 Added More 5,557 $ 431 $ 680
Bailard Inc 2016-09-30 4,750 New Holding 4,750 $ 369 $ 369
Strs Ohio 2016-09-30 89,961 Added More 3,771 $ 292 $ 6,989
Teachers Insurance Annuity Association Of America 2016-09-30 64,283 Added More 3,655 $ 283 $ 4,994
Peak6 Investments L P 2016-09-30 16,500 Added More 3,500 $ 271 $ 1,281
Guggenheim Capital Llc 2016-09-30 328,248 Added More 3,410 $ 264 $ 25,501
Kbc Group Nv 2016-09-30 25,974 Added More 2,962 $ 230 $ 2,017
Mizuho Trust Banking Co Ltd 2016-09-30 15,434 Added More 2,921 $ 226 $ 1,199
Pacer Advisors Inc 2016-09-30 9,087 Added More 2,675 $ 207 $ 705
Symphony Asset Management Llc 2016-09-30 33,135 Added More 2,662 $ 206 $ 2,574
United Capital Financial Advisers Llc 2016-09-30 10,317 Added More 2,597 $ 201 $ 801
Advisors Asset Management Inc 2016-09-30 3,114 Added More 2,511 $ 195 $ 241
Moody Aldrich Partners Llc 2016-09-30 19,255 Added More 2,250 $ 174 $ 1,495
Veritable L P 2016-09-30 11,534 Added More 2,114 $ 164 $ 896
Picton Mahoney Asset Management 2016-09-30 39,600 Added More 2,000 $ 155 $ 3,076
Ngam Advisors L P 2016-09-30 15,277 Added More 1,722 $ 133 $ 1,186
Msi Financial Services Inc 2016-09-30 5,338 Added More 1,661 $ 129 $ 414
Raymond James Financial Services Advisors Inc 2016-09-30 10,319 Added More 1,438 $ 111 $ 801
M T Bank Corp 2016-09-30 19,529 Added More 1,423 $ 110 $ 1,517
California State Teachers Retirement System 2016-09-30 137,099 Added More 1,100 $ 85 $ 10,651
Ladenburg Thalmann Financial Services Inc 2016-09-30 2,556 Added More 1,012 $ 78 $ 198
State Of Alaska Department Of Revenue 2016-09-30 30,600 Added More 970 $ 75 $ 2,377
Aperio Group Llc 2016-09-30 7,017 Added More 863 $ 67 $ 545
1st Global Advisors Inc 2016-09-30 7,250 Added More 843 $ 65 $ 563
Kemper Corp Master Retirement Trust 2016-09-30 5,750 Added More 750 $ 58 $ 446
Caprock Group Inc 2016-09-30 4,792 Added More 750 $ 58 $ 372
Cadence Capital Management Llc 2016-09-30 3,475 Added More 587 $ 45 $ 269
Community Bank N A 2016-09-30 565 New Holding 565 $ 43 $ 43
Peoples United Financial Inc 2016-09-30 9,101 Added More 408 $ 31 $ 707
New Mexico Educational Retirement Board 2016-09-30 9,526 Added More 300 $ 23 $ 740
Solaris Asset Management Llc 2016-09-30 7,799 Added More 248 $ 19 $ 605
Zurcher Kantonalbank Zurich Cantonalbank 2016-09-30 3,378 Added More 225 $ 17 $ 262
Utah Retirement Systems 2016-09-30 13,087 Added More 200 $ 15 $ 1,016
Usca Ria Llc 2016-09-30 8,379 Added More 200 $ 15 $ 650
Ledyard National Bank 2016-09-30 185 New Holding 185 $ 14 $ 14
Ftb Advisors Inc 2016-09-30 114 New Holding 114 $ 8 $ 8
Bessemer Group Inc 2016-09-30 92 New Holding 92 $ 7 $ 7
Advisor Group Inc 2016-09-30 2,050 Added More 66 $ 5 $ 159
Lebenthal Asset Management Llc 2016-09-30 65 New Holding 65 $ 5 $ 5
Fifth Third Bancorp 2016-09-30 42 New Holding 42 $ 3 $ 3
Mitsubishi Ufj Kokusai Asset Management Co Ltd 2016-09-30 10,432 Added More 39 $ 3 $ 810
Woodmont Investment Counsel Llc 2016-09-30 30 New Holding 30 $ 2 $ 2
City Holding Co 2016-09-30 292 Added More 24 $ 1 $ 22
Thompson Davis Co Inc 2016-09-30 50 Added More 16 $ 1 $ 3
Cambridge Investment Research Advisors Inc 2016-09-30 6,583 Added More 10 $ 0 $ 511
Commerce Bank 2016-09-30 6,915 Added More 5 $ 0 $ 537
Assetmark Inc 2016-09-30 535 Added More 2 $ 0 $ 41
Bks Advisors Llc 2016-09-30 16,280 No Change 0 $ 0 $ 1,264
Amica Mutual Insurance Co 2016-09-30 6,000 No Change 0 $ 0 $ 466
Amica Pension Fund Board Of Trustees 2016-09-30 4,850 No Change 0 $ 0 $ 376
Qci Asset Management Inc Ny 2016-09-30 1 No Change 0 $ 0 $ 0
Thompson Siegel Walmsley Llc 2016-09-30 1,608 No Change 0 $ 0 $ 124
Spirit Of America Management Corp Ny 2016-09-30 18,200 No Change 0 $ 0 $ 1,413
Trust Co Of Vermont 2016-09-30 73 No Change 0 $ 0 $ 5
Northwestern Mutual Wealth Management Co 2016-09-30 20 No Change 0 $ 0 $ 1
Rmr Advisors Llc 2016-09-30 77,856 No Change 0 $ 0 $ 6,048
Friedberg Investment Management 2016-09-30 21,680 No Change 0 $ 0 $ 1,684
Adams Asset Advisors Llc 2016-09-30 135,536 No Change 0 $ 0 $ 10,529
Employees Retirement System Of Texas 2016-09-30 44,000 No Change 0 $ 0 $ 3,418
Sumitomo Mitsui Asset Management Company Ltd 2016-09-30 2,758 No Change 0 $ 0 $ 214
Plante Moran Financial Advisors Llc 2016-09-30 955 No Change 0 $ 0 $ 74
Barnett Company Inc 2016-09-30 32,990 No Change 0 $ 0 $ 2,562
Quotient Investors Llc 2016-09-30 5,100 No Change 0 $ 0 $ 396
Lenox Wealth Management Inc 2016-09-30 855 No Change 0 $ 0 $ 66
Qs Investors Llc 2016-09-30 4 No Change 0 $ 0 $ 0
Cornerstone Advisors Inc 2016-09-30 192 No Change 0 $ 0 $ 14
Wfg Advisors Lp 2016-09-30 14 No Change 0 $ 0 $ 1
Landscape Capital Management L L C 2016-09-30 40,000 No Change 0 $ 0 $ 3,107
Finemark National Bank Trust 2016-09-30 200 No Change 0 $ 0 $ 15
Bartlett Co Llc 2016-09-30 650 No Change 0 $ 0 $ 50
West Family Investments Inc 2016-09-30 293,657 No Change 0 $ 0 $ 22,814
Advisory Services Network Llc 2016-09-30 40 No Change 0 $ 0 $ 3
Telemus Capital Llc 2016-09-30 5,000 No Change 0 $ 0 $ 388
Amica Retiree Medical Trust 2016-09-30 750 No Change 0 $ 0 $ 58
Ifp Advisors Inc 2016-09-30 120 No Change 0 $ 0 $ 9
Quadrant Capital Group Llc 2016-09-30 182 No Change 0 $ 0 $ 14
Integrated Investment Consultants Llc 2016-09-30 14,000 No Change 0 $ 0 $ 1,087
Bronfman E L Rothschild L P 2016-09-30 85 No Change 0 $ 0 $ 6
Cribstone Capital Management Llc 2016-09-30 500 No Change 0 $ 0 $ 38
Well Done Llc 2016-09-30 9,788 Sold Some -13 $ -1 $ 760
Voya Financial Advisors Inc 2016-09-30 3,010 Sold Some -15 $ -1 $ 233
Archford Capital Strategies Llc 2016-09-30 36 Sold Some -36 $ -2 $ 2
Checchi Capital Advisers Llc 2016-09-30 0 Sold All -38 $ -2 $ 0
Maple Capital Management Inc 2016-09-30 29,762 Sold Some -39 $ -3 $ 2,312
First Personal Financial Services 2016-09-30 58 Sold Some -62 $ -4 $ 4
Creative Planning 2016-09-30 396 Sold Some -100 $ -7 $ 30
Fort Washington Investment Advisors Inc Oh 2016-09-30 13,100 Sold Some -100 $ -7 $ 1,017
Regions Financial Corp 2016-09-30 3,061 Sold Some -117 $ -9 $ 237
Tower Research Capital Llc Trc 2016-09-30 204 Sold Some -118 $ -9 $ 15
American International Group Inc 2016-09-30 1,938 Sold Some -153 $ -11 $ 150
Profund Advisors Llc 2016-09-30 3,680 Sold Some -167 $ -12 $ 285
Stifel Financial Corp 2016-09-30 6,997 Sold Some -170 $ -13 $ 543
Simplex Trading Llc 2016-09-30 315 Sold Some -189 $ -14 $ 24
Blair William Co Il 2016-09-30 15,172 Sold Some -200 $ -15 $ 1,178
Commonwealth Equity Services Inc 2016-09-30 13,142 Sold Some -202 $ -15 $ 1,021
Blackrock Japan Co Ltd 2016-09-30 3,086 Sold Some -288 $ -22 $ 239
Nisa Investment Advisors Llc 2016-09-30 7,900 Sold Some -300 $ -23 $ 613
Cutler Group Lp 2016-09-30 10,300 Sold Some -338 $ -26 $ 800
Ibm Retirement Fund 2016-09-30 5,965 Sold Some -346 $ -26 $ 463
Green Street Investors Llc 2016-09-30 21,300 Sold Some -500 $ -38 $ 1,654
Nationwide Fund Advisors 2016-09-30 14,062 Sold Some -640 $ -49 $ 1,092
Crawford Investment Counsel Inc 2016-09-30 3,500 Sold Some -675 $ -52 $ 271
Century Capital Management Llc 2016-09-30 35,379 Sold Some -860 $ -66 $ 2,748
Kempen Capital Management N V 2016-09-30 15,891 Sold Some -1,507 $ -117 $ 1,234
Springbok Capital Management Llc 2016-09-30 15,979 Sold Some -2,125 $ -165 $ 1,241
Main Street Research Llc 2016-09-30 151,415 Sold Some -2,140 $ -166 $ 11,763
Nomura Asset Management Co Ltd 2016-09-30 44,116 Sold Some -2,202 $ -171 $ 3,427
Walleye Trading Llc 2016-09-30 7,765 Sold Some -2,307 $ -179 $ 603
Rafferty Asset Management Llc 2016-09-30 4,003 Sold Some -2,716 $ -211 $ 310
Proshare Advisors Llc 2016-09-30 13,962 Sold Some -2,768 $ -215 $ 1,084
Netols Asset Management Inc 2016-09-30 134,012 Sold Some -2,785 $ -216 $ 10,411
Panagora Asset Management Inc 2016-09-30 2,167 Sold Some -3,402 $ -264 $ 168
Raymond James Associates 2016-09-30 21,858 Sold Some -3,611 $ -280 $ 1,698
Princeton Alpha Management Lp 2016-09-30 0 Sold All -3,933 $ -305 $ 0
Teacher Retirement System Of Texas 2016-09-30 73,783 Sold Some -3,970 $ -308 $ 5,732
Pacad Investment Ltd 2016-09-30 0 Sold All -4,000 $ -310 $ 0
Gsa Capital Partners Llp 2016-09-30 0 Sold All -4,044 $ -314 $ 0
Fox Run Management L L C 2016-09-30 0 Sold All -4,200 $ -326 $ 0
Us Bancorp De 2016-09-30 1,035 Sold Some -4,206 $ -326 $ 80
Hsbc Holdings Plc 2016-09-30 9,708 Sold Some -4,262 $ -331 $ 754
Sumitomo Mitsui Trust Holdings Inc 2016-09-30 43,347 Sold Some -4,390 $ -341 $ 3,367
Hgi Capital Management Llc 2016-09-30 25,941 Sold Some -4,739 $ -368 $ 2,015
First Allied Advisory Services Inc 2016-09-30 0 Sold All -4,781 $ -371 $ 0
Verition Fund Management Llc 2016-09-30 0 Sold All -5,202 $ -404 $ 0
Diam Co Ltd 2016-09-30 129,580 Sold Some -8,020 $ -623 $ 10,067
Envestnet Asset Management Inc 2016-09-30 43,948 Sold Some -8,170 $ -634 $ 3,414
Marshall Wace Llp 2016-09-30 0 Sold All -9,300 $ -722 $ 0
Jane Street Group Llc 2016-09-30 0 Sold All -9,737 $ -756 $ 0
K J Harrison Partners Inc 2016-09-30 0 Sold All -10,000 $ -776 $ 0
Pnc Financial Services Group Inc 2016-09-30 22,392 Sold Some -10,779 $ -837 $ 1,739
Davenport Co Llc 2016-09-30 525,513 Sold Some -11,689 $ -908 $ 40,827
Bluecrest Capital Management Ltd 2016-09-30 0 Sold All -12,183 $ -946 $ 0
Sg Americas Securities Llc 2016-09-30 7,512 Sold Some -13,595 $ -1,056 $ 583
Forward Management Llc 2016-09-30 0 Sold All -15,400 $ -1,196 $ 0
Globeflex Capital L P 2016-09-30 3,260 Sold Some -19,748 $ -1,534 $ 253
Cornerstone Capital Management Holdings Llc 2016-09-30 34,785 Sold Some -20,004 $ -1,554 $ 2,702
Kennedy Capital Management Inc 2016-09-30 194,629 Sold Some -31,295 $ -2,431 $ 15,120
New York State Common Retirement Fund 2016-09-30 147,254 Sold Some -35,839 $ -2,784 $ 11,440
Squarepoint Ops Llc 2016-09-30 2,900 Sold Some -36,421 $ -2,829 $ 225
Driehaus Capital Management Llc 2016-09-30 67,204 Sold Some -36,811 $ -2,859 $ 5,221
Boston Advisors Llc 2016-09-30 167,043 Sold Some -39,741 $ -3,087 $ 12,977
Phocas Financial Corp 2016-09-30 202,972 Sold Some -40,237 $ -3,126 $ 15,768
Brant Point Investment Management Llc 2016-09-30 0 Sold All -50,500 $ -3,923 $ 0
Denali Advisors Llc 2016-09-30 0 Sold All -53,500 $ -4,156 $ 0
Laurion Capital Management Lp 2016-09-30 0 Sold All -72,940 $ -5,666 $ 0
Echo Street Capital Management Llc 2016-09-30 167,650 Sold Some -73,270 $ -5,692 $ 13,024
Weiss Multi-Strategy Advisers Llc 2016-09-30 0 Sold All -100,000 $ -7,769 $ 0
Ascend Capital Llc 2016-09-30 0 Sold All -108,509 $ -8,430 $ 0
Anchor Capital Advisors Llc 2016-09-30 705,882 Sold Some -287,826 $ -22,361 $ 54,839